sensor_id;sensor_type;location;lat;lon;timestamp;P1;durP1;ratioP1;P2;durP2;ratioP2
37451;SDS011;23314;51.114;6.900;2022-08-03T00:01:37;6.07;;;3.15;;
37451;SDS011;23314;51.114;6.900;2022-08-03T00:04:04;3.78;;;3.50;;
37451;SDS011;23314;51.114;6.900;2022-08-03T00:06:30;3.95;;;3.42;;
37451;SDS011;23314;51.114;6.900;2022-08-03T00:08:55;3.10;;;2.95;;
37451;SDS011;23314;51.114;6.900;2022-08-03T00:11:21;3.42;;;3.13;;
37451;SDS011;23314;51.114;6.900;2022-08-03T00:13:46;5.38;;;3.90;;
37451;SDS011;23314;51.114;6.900;2022-08-03T00:16:12;3.83;;;3.47;;
37451;SDS011;23314;51.114;6.900;2022-08-03T00:18:37;4.57;;;3.30;;
37451;SDS011;23314;51.114;6.900;2022-08-03T00:21:03;4.20;;;3.80;;
37451;SDS011;23314;51.114;6.900;2022-08-03T00:23:28;4.95;;;3.60;;
37451;SDS011;23314;51.114;6.900;2022-08-03T00:25:54;8.30;;;3.97;;
37451;SDS011;23314;51.114;6.900;2022-08-03T00:28:19;5.95;;;3.97;;
37451;SDS011;23314;51.114;6.900;2022-08-03T00:30:45;6.18;;;4.03;;
37451;SDS011;23314;51.114;6.900;2022-08-03T00:33:10;6.30;;;4.25;;
37451;SDS011;23314;51.114;6.900;2022-08-03T00:35:35;5.45;;;3.92;;
37451;SDS011;23314;51.114;6.900;2022-08-03T00:38:01;4.53;;;3.97;;
37451;SDS011;23314;51.114;6.900;2022-08-03T00:40:26;4.85;;;3.83;;
37451;SDS011;23314;51.114;6.900;2022-08-03T00:42:56;5.65;;;4.30;;
37451;SDS011;23314;51.114;6.900;2022-08-03T00:45:28;4.10;;;3.80;;
37451;SDS011;23314;51.114;6.900;2022-08-03T00:47:58;5.82;;;4.20;;
37451;SDS011;23314;51.114;6.900;2022-08-03T00:50:25;4.45;;;4.05;;
37451;SDS011;23314;51.114;6.900;2022-08-03T00:52:56;4.40;;;3.97;;
37451;SDS011;23314;51.114;6.900;2022-08-03T00:55:23;4.47;;;4.18;;
37451;SDS011;23314;51.114;6.900;2022-08-03T00:57:49;5.55;;;4.60;;
37451;SDS011;23314;51.114;6.900;2022-08-03T01:00:18;5.05;;;4.50;;
37451;SDS011;23314;51.114;6.900;2022-08-03T01:02:45;4.68;;;4.13;;
37451;SDS011;23314;51.114;6.900;2022-08-03T01:05:11;4.47;;;4.05;;
37451;SDS011;23314;51.114;6.900;2022-08-03T01:07:41;4.13;;;3.75;;
37451;SDS011;23314;51.114;6.900;2022-08-03T01:18:54;4.00;;;3.70;;
37451;SDS011;23314;51.114;6.900;2022-08-03T01:21:31;9.00;;;4.00;;
37451;SDS011;23314;51.114;6.900;2022-08-03T01:27:02;4.20;;;3.90;;
37451;SDS011;23314;51.114;6.900;2022-08-03T01:35:12;7.88;;;3.72;;
37451;SDS011;23314;51.114;6.900;2022-08-03T01:37:41;4.93;;;3.70;;
37451;SDS011;23314;51.114;6.900;2022-08-03T01:40:11;5.53;;;3.83;;
37451;SDS011;23314;51.114;6.900;2022-08-03T01:42:39;4.50;;;4.10;;
37451;SDS011;23314;51.114;6.900;2022-08-03T01:45:06;4.25;;;3.88;;
37451;SDS011;23314;51.114;6.900;2022-08-03T01:47:34;4.90;;;4.18;;
37451;SDS011;23314;51.114;6.900;2022-08-03T01:50:01;3.90;;;3.60;;
37451;SDS011;23314;51.114;6.900;2022-08-03T01:52:27;7.25;;;4.20;;
37451;SDS011;23314;51.114;6.900;2022-08-03T01:54:56;4.82;;;4.43;;
37451;SDS011;23314;51.114;6.900;2022-08-03T01:57:23;5.68;;;4.00;;
37451;SDS011;23314;51.114;6.900;2022-08-03T01:59:50;5.43;;;3.85;;
37451;SDS011;23314;51.114;6.900;2022-08-03T02:02:17;7.43;;;4.45;;
37451;SDS011;23314;51.114;6.900;2022-08-03T02:04:44;5.88;;;4.20;;
37451;SDS011;23314;51.114;6.900;2022-08-03T02:07:11;5.95;;;4.32;;
37451;SDS011;23314;51.114;6.900;2022-08-03T02:09:39;5.63;;;4.35;;
37451;SDS011;23314;51.114;6.900;2022-08-03T02:12:10;6.60;;;4.40;;
37451;SDS011;23314;51.114;6.900;2022-08-03T02:14:38;4.70;;;4.18;;
37451;SDS011;23314;51.114;6.900;2022-08-03T02:17:05;4.80;;;4.30;;
37451;SDS011;23314;51.114;6.900;2022-08-03T02:19:31;7.40;;;4.80;;
37451;SDS011;23314;51.114;6.900;2022-08-03T02:21:57;5.55;;;4.82;;
37451;SDS011;23314;51.114;6.900;2022-08-03T02:24:22;5.88;;;4.40;;
37451;SDS011;23314;51.114;6.900;2022-08-03T02:26:48;5.82;;;4.75;;
37451;SDS011;23314;51.114;6.900;2022-08-03T02:29:20;6.32;;;4.93;;
37451;SDS011;23314;51.114;6.900;2022-08-03T02:31:48;11.02;;;5.45;;
37451;SDS011;23314;51.114;6.900;2022-08-03T02:34:15;8.75;;;5.10;;
37451;SDS011;23314;51.114;6.900;2022-08-03T02:36:43;8.55;;;5.30;;
37451;SDS011;23314;51.114;6.900;2022-08-03T02:39:12;6.70;;;5.10;;
37451;SDS011;23314;51.114;6.900;2022-08-03T02:41:45;7.15;;;5.78;;
37451;SDS011;23314;51.114;6.900;2022-08-03T02:44:15;7.20;;;5.53;;
37451;SDS011;23314;51.114;6.900;2022-08-03T02:46:44;6.33;;;5.27;;
37451;SDS011;23314;51.114;6.900;2022-08-03T02:49:12;9.77;;;6.10;;
37451;SDS011;23314;51.114;6.900;2022-08-03T02:51:40;9.02;;;5.90;;
37451;SDS011;23314;51.114;6.900;2022-08-03T02:54:06;8.57;;;5.00;;
37451;SDS011;23314;51.114;6.900;2022-08-03T02:56:33;6.38;;;5.38;;
37451;SDS011;23314;51.114;6.900;2022-08-03T02:59:00;8.63;;;5.13;;
37451;SDS011;23314;51.114;6.900;2022-08-03T03:01:27;7.57;;;5.00;;
37451;SDS011;23314;51.114;6.900;2022-08-03T03:03:53;7.53;;;4.57;;
37451;SDS011;23314;51.114;6.900;2022-08-03T03:06:20;7.63;;;4.73;;
37451;SDS011;23314;51.114;6.900;2022-08-03T03:08:46;6.38;;;5.00;;
37451;SDS011;23314;51.114;6.900;2022-08-03T03:11:13;4.72;;;4.18;;
37451;SDS011;23314;51.114;6.900;2022-08-03T03:13:41;4.85;;;4.18;;
37451;SDS011;23314;51.114;6.900;2022-08-03T03:16:07;5.00;;;4.60;;
37451;SDS011;23314;51.114;6.900;2022-08-03T03:18:33;5.18;;;4.53;;
37451;SDS011;23314;51.114;6.900;2022-08-03T03:21:01;4.68;;;4.15;;
37451;SDS011;23314;51.114;6.900;2022-08-03T03:23:28;5.68;;;3.90;;
37451;SDS011;23314;51.114;6.900;2022-08-03T03:25:55;5.47;;;4.90;;
37451;SDS011;23314;51.114;6.900;2022-08-03T03:28:22;6.32;;;4.70;;
37451;SDS011;23314;51.114;6.900;2022-08-03T03:30:48;7.40;;;4.90;;
37451;SDS011;23314;51.114;6.900;2022-08-03T03:33:14;4.82;;;4.07;;
37451;SDS011;23314;51.114;6.900;2022-08-03T03:35:41;6.50;;;3.90;;
37451;SDS011;23314;51.114;6.900;2022-08-03T03:38:08;4.45;;;4.05;;
37451;SDS011;23314;51.114;6.900;2022-08-03T03:40:36;5.13;;;4.10;;
37451;SDS011;23314;51.114;6.900;2022-08-03T03:43:06;7.70;;;4.43;;
37451;SDS011;23314;51.114;6.900;2022-08-03T03:45:33;6.97;;;4.17;;
37451;SDS011;23314;51.114;6.900;2022-08-03T03:48:00;6.47;;;4.50;;
37451;SDS011;23314;51.114;6.900;2022-08-03T03:50:27;4.88;;;4.47;;
37451;SDS011;23314;51.114;6.900;2022-08-03T03:52:53;8.30;;;4.30;;
37451;SDS011;23314;51.114;6.900;2022-08-03T03:55:19;4.88;;;4.30;;
37451;SDS011;23314;51.114;6.900;2022-08-03T03:57:44;9.73;;;5.10;;
37451;SDS011;23314;51.114;6.900;2022-08-03T04:00:13;5.23;;;4.60;;
37451;SDS011;23314;51.114;6.900;2022-08-03T04:02:39;10.00;;;4.65;;
37451;SDS011;23314;51.114;6.900;2022-08-03T04:05:05;4.90;;;4.40;;
37451;SDS011;23314;51.114;6.900;2022-08-03T04:08:00;7.93;;;4.60;;
37451;SDS011;23314;51.114;6.900;2022-08-03T04:13:57;6.10;;;4.60;;
37451;SDS011;23314;51.114;6.900;2022-08-03T04:16:28;7.25;;;4.20;;
37451;SDS011;23314;51.114;6.900;2022-08-03T04:19:00;5.88;;;5.13;;
37451;SDS011;23314;51.114;6.900;2022-08-03T04:21:27;5.10;;;4.60;;
37451;SDS011;23314;51.114;6.900;2022-08-03T04:23:55;8.27;;;4.30;;
37451;SDS011;23314;51.114;6.900;2022-08-03T04:26:26;8.47;;;4.70;;
37451;SDS011;23314;51.114;6.900;2022-08-03T04:28:55;5.00;;;4.50;;
37451;SDS011;23314;51.114;6.900;2022-08-03T04:31:22;5.23;;;4.50;;
37451;SDS011;23314;51.114;6.900;2022-08-03T04:33:50;7.53;;;4.50;;
37451;SDS011;23314;51.114;6.900;2022-08-03T04:36:16;5.50;;;4.75;;
37451;SDS011;23314;51.114;6.900;2022-08-03T04:41:37;6.10;;;4.40;;
37451;SDS011;23314;51.114;6.900;2022-08-03T04:44:03;6.55;;;4.32;;
37451;SDS011;23314;51.114;6.900;2022-08-03T04:46:34;5.00;;;4.53;;
37451;SDS011;23314;51.114;6.900;2022-08-03T04:49:02;11.45;;;4.57;;
37451;SDS011;23314;51.114;6.900;2022-08-03T04:51:28;4.82;;;4.10;;
37451;SDS011;23314;51.114;6.900;2022-08-03T04:53:54;7.38;;;4.43;;
37451;SDS011;23314;51.114;6.900;2022-08-03T04:56:19;5.25;;;4.15;;
37451;SDS011;23314;51.114;6.900;2022-08-03T04:58:44;7.60;;;4.85;;
37451;SDS011;23314;51.114;6.900;2022-08-03T05:01:10;4.60;;;4.20;;
37451;SDS011;23314;51.114;6.900;2022-08-03T05:03:35;10.85;;;4.70;;
37451;SDS011;23314;51.114;6.900;2022-08-03T05:06:01;5.43;;;4.20;;
37451;SDS011;23314;51.114;6.900;2022-08-03T05:08:27;8.73;;;4.85;;
37451;SDS011;23314;51.114;6.900;2022-08-03T05:10:52;6.78;;;4.20;;
37451;SDS011;23314;51.114;6.900;2022-08-03T05:13:18;7.03;;;4.40;;
37451;SDS011;23314;51.114;6.900;2022-08-03T05:15:44;8.82;;;3.97;;
37451;SDS011;23314;51.114;6.900;2022-08-03T05:18:09;4.35;;;3.95;;
37451;SDS011;23314;51.114;6.900;2022-08-03T05:20:34;6.00;;;5.38;;
37451;SDS011;23314;51.114;6.900;2022-08-03T05:23:00;5.50;;;4.20;;
37451;SDS011;23314;51.114;6.900;2022-08-03T05:25:27;4.50;;;3.72;;
37451;SDS011;23314;51.114;6.900;2022-08-03T05:27:53;4.32;;;3.83;;
37451;SDS011;23314;51.114;6.900;2022-08-03T05:30:18;5.97;;;4.20;;
37451;SDS011;23314;51.114;6.900;2022-08-03T05:32:44;9.25;;;4.32;;
37451;SDS011;23314;51.114;6.900;2022-08-03T05:35:09;7.03;;;4.20;;
37451;SDS011;23314;51.114;6.900;2022-08-03T05:37:34;6.20;;;3.97;;
37451;SDS011;23314;51.114;6.900;2022-08-03T05:40:00;4.80;;;4.35;;
37451;SDS011;23314;51.114;6.900;2022-08-03T05:42:25;5.15;;;4.00;;
37451;SDS011;23314;51.114;6.900;2022-08-03T05:44:50;4.70;;;4.30;;
37451;SDS011;23314;51.114;6.900;2022-08-03T05:47:16;9.27;;;4.05;;
37451;SDS011;23314;51.114;6.900;2022-08-03T05:49:41;6.50;;;3.67;;
37451;SDS011;23314;51.114;6.900;2022-08-03T05:52:06;4.10;;;3.70;;
37451;SDS011;23314;51.114;6.900;2022-08-03T05:54:32;6.80;;;3.75;;
37451;SDS011;23314;51.114;6.900;2022-08-03T05:56:57;8.60;;;3.90;;
37451;SDS011;23314;51.114;6.900;2022-08-03T05:59:22;7.55;;;4.32;;
37451;SDS011;23314;51.114;6.900;2022-08-03T06:01:49;8.48;;;4.05;;
37451;SDS011;23314;51.114;6.900;2022-08-03T06:04:15;6.90;;;3.60;;
37451;SDS011;23314;51.114;6.900;2022-08-03T06:06:40;6.13;;;3.65;;
37451;SDS011;23314;51.114;6.900;2022-08-03T06:09:06;6.43;;;3.65;;
37451;SDS011;23314;51.114;6.900;2022-08-03T06:11:31;4.43;;;3.92;;
37451;SDS011;23314;51.114;6.900;2022-08-03T06:13:56;6.35;;;3.97;;
37451;SDS011;23314;51.114;6.900;2022-08-03T06:16:22;6.60;;;4.25;;
37451;SDS011;23314;51.114;6.900;2022-08-03T06:18:47;6.57;;;3.88;;
37451;SDS011;23314;51.114;6.900;2022-08-03T06:21:12;8.82;;;4.00;;
37451;SDS011;23314;51.114;6.900;2022-08-03T06:23:38;4.85;;;3.72;;
37451;SDS011;23314;51.114;6.900;2022-08-03T06:26:03;10.73;;;4.68;;
37451;SDS011;23314;51.114;6.900;2022-08-03T06:28:28;13.88;;;5.20;;
37451;SDS011;23314;51.114;6.900;2022-08-03T06:30:54;10.40;;;4.30;;
37451;SDS011;23314;51.114;6.900;2022-08-03T06:33:19;7.13;;;4.00;;
37451;SDS011;23314;51.114;6.900;2022-08-03T06:35:44;8.23;;;4.30;;
37451;SDS011;23314;51.114;6.900;2022-08-03T06:38:10;6.78;;;4.07;;
37451;SDS011;23314;51.114;6.900;2022-08-03T06:40:36;5.10;;;3.72;;
37451;SDS011;23314;51.114;6.900;2022-08-03T06:43:04;6.82;;;3.95;;
37451;SDS011;23314;51.114;6.900;2022-08-03T06:45:30;5.13;;;3.65;;
37451;SDS011;23314;51.114;6.900;2022-08-03T06:48:00;5.72;;;3.60;;
37451;SDS011;23314;51.114;6.900;2022-08-03T06:50:27;7.20;;;3.50;;
37451;SDS011;23314;51.114;6.900;2022-08-03T06:52:53;4.47;;;3.70;;
37451;SDS011;23314;51.114;6.900;2022-08-03T06:55:18;5.75;;;3.75;;
37451;SDS011;23314;51.114;6.900;2022-08-03T06:57:43;4.57;;;3.88;;
37451;SDS011;23314;51.114;6.900;2022-08-03T07:00:09;4.45;;;3.65;;
37451;SDS011;23314;51.114;6.900;2022-08-03T07:02:35;10.93;;;3.63;;
37451;SDS011;23314;51.114;6.900;2022-08-03T07:05:01;4.40;;;4.00;;
37451;SDS011;23314;51.114;6.900;2022-08-03T07:07:26;6.25;;;3.45;;
37451;SDS011;23314;51.114;6.900;2022-08-03T07:09:52;5.00;;;3.63;;
37451;SDS011;23314;51.114;6.900;2022-08-03T07:12:17;7.65;;;3.35;;
37451;SDS011;23314;51.114;6.900;2022-08-03T07:14:42;6.95;;;3.80;;
37451;SDS011;23314;51.114;6.900;2022-08-03T07:17:08;6.45;;;3.75;;
37451;SDS011;23314;51.114;6.900;2022-08-03T07:19:33;4.07;;;3.63;;
37451;SDS011;23314;51.114;6.900;2022-08-03T07:21:59;7.97;;;3.22;;
37451;SDS011;23314;51.114;6.900;2022-08-03T07:24:24;4.47;;;3.40;;
37451;SDS011;23314;51.114;6.900;2022-08-03T07:26:50;6.75;;;3.47;;
37451;SDS011;23314;51.114;6.900;2022-08-03T07:29:15;5.80;;;3.38;;
37451;SDS011;23314;51.114;6.900;2022-08-03T07:31:40;8.88;;;3.10;;
37451;SDS011;23314;51.114;6.900;2022-08-03T07:34:06;6.30;;;3.42;;
37451;SDS011;23314;51.114;6.900;2022-08-03T07:36:31;6.00;;;3.42;;
37451;SDS011;23314;51.114;6.900;2022-08-03T07:38:56;5.32;;;3.42;;
37451;SDS011;23314;51.114;6.900;2022-08-03T07:41:22;9.50;;;3.50;;
37451;SDS011;23314;51.114;6.900;2022-08-03T07:43:47;4.68;;;2.85;;
37451;SDS011;23314;51.114;6.900;2022-08-03T07:46:13;4.40;;;3.08;;
37451;SDS011;23314;51.114;6.900;2022-08-03T07:48:39;3.55;;;3.25;;
37451;SDS011;23314;51.114;6.900;2022-08-03T07:51:04;6.95;;;3.50;;
37451;SDS011;23314;51.114;6.900;2022-08-03T07:53:30;4.60;;;3.00;;
37451;SDS011;23314;51.114;6.900;2022-08-03T07:55:55;3.42;;;2.88;;
37451;SDS011;23314;51.114;6.900;2022-08-03T07:58:21;9.90;;;3.22;;
37451;SDS011;23314;51.114;6.900;2022-08-03T08:00:47;8.73;;;3.63;;
37451;SDS011;23314;51.114;6.900;2022-08-03T08:03:15;6.63;;;3.08;;
37451;SDS011;23314;51.114;6.900;2022-08-03T08:05:40;6.05;;;3.03;;
37451;SDS011;23314;51.114;6.900;2022-08-03T08:08:05;5.07;;;3.25;;
37451;SDS011;23314;51.114;6.900;2022-08-03T08:10:31;7.22;;;2.97;;
37451;SDS011;23314;51.114;6.900;2022-08-03T08:12:56;9.23;;;3.03;;
37451;SDS011;23314;51.114;6.900;2022-08-03T08:15:22;5.78;;;3.45;;
37451;SDS011;23314;51.114;6.900;2022-08-03T08:17:49;11.93;;;6.57;;
37451;SDS011;23314;51.114;6.900;2022-08-03T08:20:17;6.70;;;3.75;;
37451;SDS011;23314;51.114;6.900;2022-08-03T08:22:48;7.68;;;5.05;;
37451;SDS011;23314;51.114;6.900;2022-08-03T08:25:13;7.72;;;4.32;;
37451;SDS011;23314;51.114;6.900;2022-08-03T08:27:42;8.90;;;2.85;;
37451;SDS011;23314;51.114;6.900;2022-08-03T08:30:09;6.47;;;3.20;;
37451;SDS011;23314;51.114;6.900;2022-08-03T08:32:35;5.93;;;2.88;;
37451;SDS011;23314;51.114;6.900;2022-08-03T08:35:01;10.40;;;3.83;;
37451;SDS011;23314;51.114;6.900;2022-08-03T08:37:30;10.68;;;3.45;;
37451;SDS011;23314;51.114;6.900;2022-08-03T08:39:55;8.00;;;3.40;;
37451;SDS011;23314;51.114;6.900;2022-08-03T08:42:21;6.28;;;3.05;;
37451;SDS011;23314;51.114;6.900;2022-08-03T08:44:46;2.92;;;2.72;;
37451;SDS011;23314;51.114;6.900;2022-08-03T08:47:12;5.05;;;2.88;;
37451;SDS011;23314;51.114;6.900;2022-08-03T08:49:38;7.38;;;3.55;;
37451;SDS011;23314;51.114;6.900;2022-08-03T08:52:05;6.28;;;3.25;;
37451;SDS011;23314;51.114;6.900;2022-08-03T08:54:32;5.68;;;2.83;;
37451;SDS011;23314;51.114;6.900;2022-08-03T08:57:01;7.47;;;3.13;;
37451;SDS011;23314;51.114;6.900;2022-08-03T08:59:28;3.95;;;3.00;;
37451;SDS011;23314;51.114;6.900;2022-08-03T09:01:57;4.07;;;2.58;;
37451;SDS011;23314;51.114;6.900;2022-08-03T09:04:23;5.75;;;2.90;;
37451;SDS011;23314;51.114;6.900;2022-08-03T09:06:48;5.80;;;2.92;;
37451;SDS011;23314;51.114;6.900;2022-08-03T09:09:14;4.22;;;2.63;;
37451;SDS011;23314;51.114;6.900;2022-08-03T09:11:43;4.45;;;2.58;;
37451;SDS011;23314;51.114;6.900;2022-08-03T09:14:09;4.45;;;2.45;;
37451;SDS011;23314;51.114;6.900;2022-08-03T09:16:34;6.80;;;2.67;;
37451;SDS011;23314;51.114;6.900;2022-08-03T09:19:09;9.20;;;2.72;;
37451;SDS011;23314;51.114;6.900;2022-08-03T09:21:37;3.85;;;2.50;;
37451;SDS011;23314;51.114;6.900;2022-08-03T09:24:04;8.07;;;2.45;;
37451;SDS011;23314;51.114;6.900;2022-08-03T09:26:30;3.58;;;2.53;;
37451;SDS011;23314;51.114;6.900;2022-08-03T09:28:57;5.07;;;2.60;;
37451;SDS011;23314;51.114;6.900;2022-08-03T09:31:34;2.33;;;2.13;;
37451;SDS011;23314;51.114;6.900;2022-08-03T09:34:11;5.60;;;2.15;;
37451;SDS011;23314;51.114;6.900;2022-08-03T09:39:17;3.58;;;2.35;;
37451;SDS011;23314;51.114;6.900;2022-08-03T09:41:45;4.00;;;1.95;;
37451;SDS011;23314;51.114;6.900;2022-08-03T09:44:13;4.18;;;2.40;;
37451;SDS011;23314;51.114;6.900;2022-08-03T09:46:49;2.97;;;2.58;;
37451;SDS011;23314;51.114;6.900;2022-08-03T09:49:15;5.85;;;1.95;;
37451;SDS011;23314;51.114;6.900;2022-08-03T09:51:42;2.20;;;1.55;;
37451;SDS011;23314;51.114;6.900;2022-08-03T09:54:08;12.35;;;2.00;;
37451;SDS011;23314;51.114;6.900;2022-08-03T09:56:44;3.95;;;2.10;;
37451;SDS011;23314;51.114;6.900;2022-08-03T09:59:12;4.00;;;1.70;;
37451;SDS011;23314;51.114;6.900;2022-08-03T10:01:47;2.25;;;1.75;;
37451;SDS011;23314;51.114;6.900;2022-08-03T10:04:13;5.32;;;2.05;;
37451;SDS011;23314;51.114;6.900;2022-08-03T10:06:44;4.68;;;1.73;;
37451;SDS011;23314;51.114;6.900;2022-08-03T10:09:24;4.03;;;1.83;;
37451;SDS011;23314;51.114;6.900;2022-08-03T10:11:50;2.50;;;2.08;;
37451;SDS011;23314;51.114;6.900;2022-08-03T10:14:15;4.32;;;2.25;;
37451;SDS011;23314;51.114;6.900;2022-08-03T10:16:44;3.75;;;2.17;;
37451;SDS011;23314;51.114;6.900;2022-08-03T10:19:11;6.43;;;1.70;;
37451;SDS011;23314;51.114;6.900;2022-08-03T10:21:39;3.88;;;1.77;;
37451;SDS011;23314;51.114;6.900;2022-08-03T10:24:06;6.75;;;2.33;;
37451;SDS011;23314;51.114;6.900;2022-08-03T10:26:34;5.25;;;1.88;;
37451;SDS011;23314;51.114;6.900;2022-08-03T10:29:02;4.43;;;1.95;;
37451;SDS011;23314;51.114;6.900;2022-08-03T10:31:37;3.90;;;1.80;;
37451;SDS011;23314;51.114;6.900;2022-08-03T10:34:05;4.78;;;2.15;;
37451;SDS011;23314;51.114;6.900;2022-08-03T10:36:36;4.03;;;1.73;;
37451;SDS011;23314;51.114;6.900;2022-08-03T10:39:04;3.95;;;2.03;;
37451;SDS011;23314;51.114;6.900;2022-08-03T10:41:30;2.33;;;1.70;;
37451;SDS011;23314;51.114;6.900;2022-08-03T10:44:04;4.05;;;1.92;;
37451;SDS011;23314;51.114;6.900;2022-08-03T10:46:34;3.50;;;1.50;;
37451;SDS011;23314;51.114;6.900;2022-08-03T10:49:02;4.03;;;1.63;;
37451;SDS011;23314;51.114;6.900;2022-08-03T10:51:28;1.73;;;1.63;;
37451;SDS011;23314;51.114;6.900;2022-08-03T10:53:57;4.68;;;1.65;;
37451;SDS011;23314;51.114;6.900;2022-08-03T10:56:38;3.63;;;1.73;;
37451;SDS011;23314;51.114;6.900;2022-08-03T11:02:12;5.63;;;2.00;;
37451;SDS011;23314;51.114;6.900;2022-08-03T11:04:40;4.10;;;1.55;;
37451;SDS011;23314;51.114;6.900;2022-08-03T11:09:47;5.93;;;2.33;;
37451;SDS011;23314;51.114;6.900;2022-08-03T11:12:30;1.77;;;1.67;;
37451;SDS011;23314;51.114;6.900;2022-08-03T11:14:59;4.35;;;2.15;;
37451;SDS011;23314;51.114;6.900;2022-08-03T11:17:32;1.85;;;1.58;;
37451;SDS011;23314;51.114;6.900;2022-08-03T11:19:59;4.53;;;1.80;;
37451;SDS011;23314;51.114;6.900;2022-08-03T11:22:25;2.95;;;1.65;;
37451;SDS011;23314;51.114;6.900;2022-08-03T11:25:15;3.38;;;1.70;;
37451;SDS011;23314;51.114;6.900;2022-08-03T11:27:40;1.88;;;1.50;;
37451;SDS011;23314;51.114;6.900;2022-08-03T11:30:10;4.13;;;1.55;;
37451;SDS011;23314;51.114;6.900;2022-08-03T11:32:50;4.65;;;1.70;;
37451;SDS011;23314;51.114;6.900;2022-08-03T11:40:33;2.22;;;1.50;;
37451;SDS011;23314;51.114;6.900;2022-08-03T11:43:01;6.30;;;2.00;;
37451;SDS011;23314;51.114;6.900;2022-08-03T11:45:28;2.17;;;1.30;;
37451;SDS011;23314;51.114;6.900;2022-08-03T11:47:53;3.00;;;1.40;;
37451;SDS011;23314;51.114;6.900;2022-08-03T11:50:20;7.90;;;1.70;;
37451;SDS011;23314;51.114;6.900;2022-08-03T11:52:46;2.90;;;1.42;;
37451;SDS011;23314;51.114;6.900;2022-08-03T11:55:14;5.32;;;1.40;;
37451;SDS011;23314;51.114;6.900;2022-08-03T11:57:41;3.92;;;1.67;;
37451;SDS011;23314;51.114;6.900;2022-08-03T12:02:54;3.38;;;1.48;;
37451;SDS011;23314;51.114;6.900;2022-08-03T12:05:31;4.10;;;1.70;;
37451;SDS011;23314;51.114;6.900;2022-08-03T12:08:00;1.50;;;1.42;;
37451;SDS011;23314;51.114;6.900;2022-08-03T12:10:26;3.25;;;1.60;;
37451;SDS011;23314;51.114;6.900;2022-08-03T12:12:58;2.92;;;1.38;;
37451;SDS011;23314;51.114;6.900;2022-08-03T12:15:28;8.05;;;1.88;;
37451;SDS011;23314;51.114;6.900;2022-08-03T12:17:57;4.53;;;1.40;;
37451;SDS011;23314;51.114;6.900;2022-08-03T12:20:24;4.13;;;1.63;;
37451;SDS011;23314;51.114;6.900;2022-08-03T12:22:51;4.25;;;1.60;;
37451;SDS011;23314;51.114;6.900;2022-08-03T12:25:21;3.00;;;1.42;;
37451;SDS011;23314;51.114;6.900;2022-08-03T12:27:48;2.42;;;1.38;;
37451;SDS011;23314;51.114;6.900;2022-08-03T12:30:14;3.08;;;1.73;;
37451;SDS011;23314;51.114;6.900;2022-08-03T12:32:41;2.72;;;1.80;;
37451;SDS011;23314;51.114;6.900;2022-08-03T12:35:07;2.67;;;1.55;;
37451;SDS011;23314;51.114;6.900;2022-08-03T12:37:32;2.17;;;1.70;;
37451;SDS011;23314;51.114;6.900;2022-08-03T12:39:59;2.30;;;1.70;;
37451;SDS011;23314;51.114;6.900;2022-08-03T12:42:43;6.95;;;2.13;;
37451;SDS011;23314;51.114;6.900;2022-08-03T12:47:51;2.97;;;1.50;;
37451;SDS011;23314;51.114;6.900;2022-08-03T12:50:24;3.65;;;1.60;;
37451;SDS011;23314;51.114;6.900;2022-08-03T12:52:53;2.78;;;1.50;;
37451;SDS011;23314;51.114;6.900;2022-08-03T12:55:20;6.15;;;1.42;;
37451;SDS011;23314;51.114;6.900;2022-08-03T12:57:46;1.77;;;1.60;;
37451;SDS011;23314;51.114;6.900;2022-08-03T13:00:13;2.92;;;1.65;;
37451;SDS011;23314;51.114;6.900;2022-08-03T13:02:40;8.75;;;1.90;;
37451;SDS011;23314;51.114;6.900;2022-08-03T13:05:09;4.68;;;1.70;;
37451;SDS011;23314;51.114;6.900;2022-08-03T13:07:45;6.68;;;1.63;;
37451;SDS011;23314;51.114;6.900;2022-08-03T13:10:11;4.20;;;1.42;;
37451;SDS011;23314;51.114;6.900;2022-08-03T13:12:52;3.50;;;1.55;;
37451;SDS011;23314;51.114;6.900;2022-08-03T13:15:17;5.68;;;1.85;;
37451;SDS011;23314;51.114;6.900;2022-08-03T13:17:43;3.17;;;1.50;;
37451;SDS011;23314;51.114;6.900;2022-08-03T13:20:10;2.38;;;1.90;;
37451;SDS011;23314;51.114;6.900;2022-08-03T13:22:36;1.85;;;1.35;;
37451;SDS011;23314;51.114;6.900;2022-08-03T13:25:01;4.88;;;1.67;;
37451;SDS011;23314;51.114;6.900;2022-08-03T13:27:27;4.47;;;1.65;;
37451;SDS011;23314;51.114;6.900;2022-08-03T13:29:54;5.57;;;1.88;;
37451;SDS011;23314;51.114;6.900;2022-08-03T13:32:20;6.18;;;1.60;;
37451;SDS011;23314;51.114;6.900;2022-08-03T13:34:46;7.32;;;1.50;;
37451;SDS011;23314;51.114;6.900;2022-08-03T13:37:11;3.13;;;1.60;;
37451;SDS011;23314;51.114;6.900;2022-08-03T13:39:38;4.22;;;1.60;;
37451;SDS011;23314;51.114;6.900;2022-08-03T13:42:03;3.72;;;1.48;;
37451;SDS011;23314;51.114;6.900;2022-08-03T13:44:29;3.20;;;1.60;;
37451;SDS011;23314;51.114;6.900;2022-08-03T13:46:55;6.45;;;1.55;;
37451;SDS011;23314;51.114;6.900;2022-08-03T13:49:21;4.47;;;1.80;;
37451;SDS011;23314;51.114;6.900;2022-08-03T13:51:46;6.55;;;1.58;;
37451;SDS011;23314;51.114;6.900;2022-08-03T13:54:11;4.10;;;1.50;;
37451;SDS011;23314;51.114;6.900;2022-08-03T13:56:37;6.88;;;1.80;;
37451;SDS011;23314;51.114;6.900;2022-08-03T13:59:04;4.20;;;1.90;;
37451;SDS011;23314;51.114;6.900;2022-08-03T14:01:30;6.72;;;1.55;;
37451;SDS011;23314;51.114;6.900;2022-08-03T14:03:55;6.25;;;1.67;;
37451;SDS011;23314;51.114;6.900;2022-08-03T14:06:22;8.50;;;1.85;;
37451;SDS011;23314;51.114;6.900;2022-08-03T14:08:48;6.53;;;2.00;;
37451;SDS011;23314;51.114;6.900;2022-08-03T14:11:14;3.17;;;1.88;;
37451;SDS011;23314;51.114;6.900;2022-08-03T14:13:40;4.45;;;1.50;;
37451;SDS011;23314;51.114;6.900;2022-08-03T14:16:05;2.75;;;1.63;;
37451;SDS011;23314;51.114;6.900;2022-08-03T14:18:33;6.05;;;1.80;;
37451;SDS011;23314;51.114;6.900;2022-08-03T14:20:58;4.10;;;1.58;;
37451;SDS011;23314;51.114;6.900;2022-08-03T14:23:24;4.18;;;1.55;;
37451;SDS011;23314;51.114;6.900;2022-08-03T14:25:50;6.20;;;2.05;;
37451;SDS011;23314;51.114;6.900;2022-08-03T14:28:15;5.28;;;1.70;;
37451;SDS011;23314;51.114;6.900;2022-08-03T14:30:41;2.20;;;1.60;;
37451;SDS011;23314;51.114;6.900;2022-08-03T14:33:08;7.80;;;1.48;;
37451;SDS011;23314;51.114;6.900;2022-08-03T14:35:33;4.05;;;1.60;;
37451;SDS011;23314;51.114;6.900;2022-08-03T14:37:58;3.67;;;1.73;;
37451;SDS011;23314;51.114;6.900;2022-08-03T14:40:24;6.70;;;1.80;;
37451;SDS011;23314;51.114;6.900;2022-08-03T14:42:49;3.88;;;1.90;;
37451;SDS011;23314;51.114;6.900;2022-08-03T14:45:15;2.17;;;1.50;;
37451;SDS011;23314;51.114;6.900;2022-08-03T14:47:40;4.97;;;1.70;;
37451;SDS011;23314;51.114;6.900;2022-08-03T14:50:06;2.78;;;1.48;;
37451;SDS011;23314;51.114;6.900;2022-08-03T14:52:32;5.10;;;2.15;;
37451;SDS011;23314;51.114;6.900;2022-08-03T14:54:58;5.95;;;1.80;;
37451;SDS011;23314;51.114;6.900;2022-08-03T14:57:24;4.90;;;1.60;;
37451;SDS011;23314;51.114;6.900;2022-08-03T14:59:50;4.60;;;1.90;;
37451;SDS011;23314;51.114;6.900;2022-08-03T15:02:16;5.30;;;1.67;;
37451;SDS011;23314;51.114;6.900;2022-08-03T15:04:41;4.13;;;1.70;;
37451;SDS011;23314;51.114;6.900;2022-08-03T15:07:20;2.78;;;1.70;;
37451;SDS011;23314;51.114;6.900;2022-08-03T15:09:45;6.03;;;1.77;;
37451;SDS011;23314;51.114;6.900;2022-08-03T15:12:10;3.67;;;1.65;;
37451;SDS011;23314;51.114;6.900;2022-08-03T15:14:36;3.05;;;1.55;;
37451;SDS011;23314;51.114;6.900;2022-08-03T15:17:01;4.28;;;1.45;;
37451;SDS011;23314;51.114;6.900;2022-08-03T15:19:27;2.55;;;1.30;;
37451;SDS011;23314;51.114;6.900;2022-08-03T15:21:53;5.03;;;1.58;;
37451;SDS011;23314;51.114;6.900;2022-08-03T15:24:18;4.95;;;1.38;;
37451;SDS011;23314;51.114;6.900;2022-08-03T15:26:43;3.20;;;1.60;;
37451;SDS011;23314;51.114;6.900;2022-08-03T15:29:09;4.32;;;1.50;;
37451;SDS011;23314;51.114;6.900;2022-08-03T15:31:34;2.45;;;1.63;;